General Baldissera, Argentina
Current Conditions -  °F | °C
As of 3:00 PM on Sunday 25 Jan 2015 (Local Time) from SAAR Reporting Station
Broken Clouds Broken Clouds  
Wind Chill: 33°   Ceiling: 20000
Heat Index: 37°   Visibility: 6mi
Dew Point: 22°   Wind: 8mph
Humidity: 52%   Direction: 90°E
Pressure: 29.8"   Gusts: NA
Location:  33.12°S, 62.32°W
Report Text: SAAR 251800Z 09007KT 9999 FEW035 BKN20033/22 Q1009
Loading
Personal Weather Stations






























Interactive Weather Map New forecast layout! Learn more

10-Day Weather Forecast

Advertisements
Track Severe Weather on mobile